Time;durP1;ratioP1;P1;durP2;ratioP2;P2;SDS_P1;SDS_P2;PMS_P1;PMS_P2;Temp;Humidity;BMP_temperature;BMP_pressure;BME280_temperature;BME280_humidity;BME280_pressure;Samples;Min_cycle;Max_cycle;Signal;HPM_P1;HPM_P2
2023/08/29 00:00:50;;;;;;;0.10;0.10;;;;;;;12.09;68.71;99436.19;4995876;28;20050;-73
2023/08/29 00:03:17;;;;;;;0.10;0.10;;;;;;;12.20;67.75;99465.13;5007049;28;20069;-73
2023/08/29 00:05:43;;;;;;;;;;;;;;;12.22;68.62;99453.88;5008726;28;20053;-74
2023/08/29 00:08:09;;;;;;;0.10;0.10;;;;;;;12.23;67.86;99450.03;5011124;28;19929;-74
2023/08/29 00:10:36;;;;;;;0.10;0.10;;;;;;;12.25;66.72;99457.94;5013419;28;20066;-72
2023/08/29 00:13:02;;;;;;;0.00;0.00;;;;;;;12.20;65.98;99462.38;5008669;28;20092;-73
2023/08/29 00:15:28;;;;;;;0.10;0.10;;;;;;;12.18;66.30;99461.06;5007399;28;20179;-72
2023/08/29 00:17:54;;;;;;;0.10;0.10;;;;;;;12.12;66.52;99464.94;5007545;28;20218;-71
2023/08/29 00:20:22;;;;;;;0.10;0.10;;;;;;;12.12;67.15;99475.91;5005965;28;20528;-74
2023/08/29 00:22:48;;;;;;;0.10;0.10;;;;;;;12.14;67.52;99479.19;5007026;28;20045;-74
2023/08/29 00:25:15;;;;;;;0.10;0.10;;;;;;;12.22;67.46;99494.16;5014211;28;20529;-76
2023/08/29 00:27:41;;;;;;;0.10;0.10;;;;;;;12.31;67.47;99493.19;5027574;28;20069;-74
2023/08/29 00:30:09;;;;;;;0.10;0.10;;;;;;;12.39;66.55;99496.41;5000363;28;20057;-71
2023/08/29 00:32:35;;;;;;;0.10;0.10;;;;;;;12.42;66.67;99495.81;5014656;28;20111;-73
2023/08/29 00:35:03;;;;;;;0.10;0.10;;;;;;;12.49;66.47;99493.56;5025449;28;20073;-72
2023/08/29 00:37:33;;;;;;;0.10;0.10;;;;;;;12.48;65.62;99484.50;5003837;28;20664;-72
2023/08/29 00:40:01;;;;;;;0.10;0.10;;;;;;;12.45;65.28;99478.78;4988870;28;20049;-71
2023/08/29 00:42:28;;;;;;;0.10;0.10;;;;;;;12.45;66.81;99479.59;4989817;28;20082;-71
2023/08/29 00:44:54;;;;;;;0.10;0.10;;;;;;;12.50;66.73;99481.47;4990235;28;20072;-73
2023/08/29 00:47:20;;;;;;;0.10;0.10;;;;;;;12.47;67.20;99471.91;4989861;28;20078;-72
2023/08/29 00:49:46;;;;;;;0.08;0.08;;;;;;;12.34;66.83;99443.28;4989851;28;20128;-72
2023/08/29 00:52:14;;;;;;;0.30;0.10;;;;;;;12.48;66.52;99464.47;4989628;28;20076;-71
2023/08/29 00:54:43;;;;;;;0.10;0.10;;;;;;;12.50;67.32;99465.00;4990012;28;20054;-72
2023/08/29 00:57:09;;;;;;;0.10;0.10;;;;;;;12.51;66.99;99458.41;4986717;28;20070;-73
2023/08/29 00:59:35;;;;;;;0.10;0.10;;;;;;;12.53;66.54;99455.38;5003095;28;20049;-74
2023/08/29 01:02:03;;;;;;;0.10;0.10;;;;;;;12.49;66.11;99452.41;4986605;28;20205;-73
2023/08/29 01:04:30;;;;;;;;;;;;;;;12.45;66.86;99445.88;4997510;28;20075;-72
2023/08/29 01:06:57;;;;;;;0.10;0.10;;;;;;;12.45;66.53;99441.22;5006152;28;19961;-74
2023/08/29 01:09:25;;;;;;;0.10;0.10;;;;;;;12.42;66.44;99443.72;5021686;28;20037;-73
2023/08/29 01:11:58;;;;;;;0.10;0.10;;;;;;;12.39;66.54;99445.13;5007364;28;20076;-73
2023/08/29 01:14:34;;;;;;;0.10;0.10;;;;;;;12.37;66.95;99444.63;5007106;28;20046;-73
2023/08/29 01:17:06;;;;;;;0.10;0.10;;;;;;;12.35;67.49;99449.56;5003609;28;20070;-71
2023/08/29 01:19:35;;;;;;;0.10;0.10;;;;;;;12.28;67.37;99455.41;4989062;28;20042;-72
2023/08/29 01:22:16;;;;;;;0.10;0.10;;;;;;;12.29;67.66;99465.28;5007592;28;20042;-73
2023/08/29 01:24:49;;;;;;;0.15;0.10;;;;;;;12.29;68.43;99467.22;5008174;28;20301;-73
2023/08/29 01:27:18;;;;;;;0.10;0.10;;;;;;;12.31;67.92;99470.47;5002486;28;20111;-73
2023/08/29 01:29:48;;;;;;;0.10;0.10;;;;;;;12.26;67.84;99476.03;5011229;28;20513;-74
2023/08/29 01:32:15;;;;;;;0.10;0.10;;;;;;;12.18;67.67;99469.28;5008738;28;20406;-72
2023/08/29 01:34:43;;;;;;;0.10;0.10;;;;;;;12.09;68.17;99471.03;5002787;28;20141;-74
2023/08/29 01:37:10;;;;;;;0.10;0.10;;;;;;;12.03;68.31;99473.00;5005138;28;20074;-74
2023/08/29 01:39:36;;;;;;;0.10;0.10;;;;;;;11.98;68.86;99476.59;5007279;28;20042;-75
2023/08/29 01:42:03;;;;;;;0.10;0.10;;;;;;;11.99;69.35;99474.69;5005642;28;20066;-73
2023/08/29 01:44:31;;;;;;;0.10;0.10;;;;;;;12.01;69.33;99473.28;5005924;28;20049;-73
2023/08/29 01:46:57;;;;;;;0.10;0.10;;;;;;;12.05;68.75;99482.59;5007527;28;20133;-71
2023/08/29 01:49:24;;;;;;;0.10;0.10;;;;;;;11.95;68.83;99463.47;5002573;28;20049;-73
2023/08/29 01:51:51;;;;;;;0.10;0.10;;;;;;;12.07;69.31;99479.53;4984388;28;20128;-73
2023/08/29 01:54:19;;;;;;;0.10;0.10;;;;;;;12.11;68.97;99479.75;4992096;28;20149;-74
2023/08/29 01:56:47;;;;;;;0.10;0.10;;;;;;;12.11;69.51;99479.75;5002984;28;20418;-75
2023/08/29 01:59:13;;;;;;;0.10;0.10;;;;;;;12.14;69.41;99474.53;5003697;28;20077;-74
2023/08/29 02:01:41;;;;;;;0.10;0.10;;;;;;;12.12;68.70;99484.13;5003195;28;20137;-76
2023/08/29 02:04:07;;;;;;;0.10;0.10;;;;;;;12.04;69.02;99482.84;5021146;28;20088;-73
2023/08/29 02:06:34;;;;;;;0.10;0.10;;;;;;;12.07;69.21;99490.50;5005994;28;20160;-74
2023/08/29 02:09:00;;;;;;;0.10;0.10;;;;;;;12.14;69.29;99485.50;4967517;28;20050;-73
2023/08/29 02:11:26;;;;;;;0.10;0.10;;;;;;;12.22;68.86;99481.28;4989489;28;20049;-73
2023/08/29 02:13:57;;;;;;;0.10;0.10;;;;;;;12.23;68.69;99457.41;5000439;28;20085;-72
2023/08/29 02:16:24;;;;;;;0.10;0.10;;;;;;;12.29;68.62;99470.75;4996165;28;20587;-73
2023/08/29 02:18:52;;;;;;;0.10;0.10;;;;;;;12.25;68.81;99468.91;5005190;28;20054;-74
2023/08/29 02:21:18;;;;;;;0.10;0.10;;;;;;;12.26;68.67;99478.78;5006259;28;20054;-75
2023/08/29 02:23:45;;;;;;;0.10;0.10;;;;;;;12.25;68.78;99466.97;4999376;28;20051;-74
2023/08/29 02:26:12;;;;;;;0.10;0.10;;;;;;;12.20;69.06;99481.56;4986149;28;20070;-73
2023/08/29 02:28:38;;;;;;;0.10;0.10;;;;;;;12.20;69.31;99476.06;5015672;28;20061;-73
2023/08/29 02:31:05;;;;;;;;;;;;;;;12.28;69.25;99473.81;5025134;28;20054;-74
2023/08/29 02:33:35;;;;;;;0.10;0.10;;;;;;;12.28;68.87;99466.38;5014302;28;20423;-74
2023/08/29 02:36:04;;;;;;;0.10;0.10;;;;;;;12.28;69.41;99471.06;5004331;28;20108;-72
2023/08/29 02:38:31;;;;;;;0.10;0.10;;;;;;;12.28;69.69;99476.56;5005760;28;20100;-74
2023/08/29 02:40:57;;;;;;;0.10;0.10;;;;;;;12.26;69.54;99476.03;4975390;28;20052;-74
2023/08/29 02:43:23;;;;;;;0.10;0.10;;;;;;;12.29;69.80;99476.25;5002654;28;20069;-74
2023/08/29 02:45:50;;;;;;;0.10;0.10;;;;;;;12.26;70.55;99476.03;5003215;28;20050;-75
2023/08/29 02:48:17;;;;;;;0.10;0.10;;;;;;;12.29;70.30;99483.66;5004677;28;20058;-74
2023/08/29 02:50:48;;;;;;;0.10;0.10;;;;;;;12.27;70.36;99485.88;5007944;28;20064;-73
2023/08/29 02:53:18;;;;;;;0.10;0.10;;;;;;;12.34;70.35;99492.63;5002969;28;20051;-74
2023/08/29 02:55:44;;;;;;;0.10;0.10;;;;;;;12.36;69.89;99478.63;5002758;28;20050;-75
2023/08/29 02:58:10;;;;;;;0.10;0.10;;;;;;;12.40;70.12;99482.41;5003854;28;20352;-74
2023/08/29 03:00:37;;;;;;;0.10;0.10;;;;;;;12.45;70.27;99482.34;5009282;28;20296;-73
2023/08/29 03:03:05;;;;;;;0.10;0.10;;;;;;;12.50;70.12;99477.91;5006258;28;20069;-74
2023/08/29 03:05:31;;;;;;;0.10;0.10;;;;;;;12.55;69.91;99483.28;5006250;28;20136;-73
2023/08/29 03:07:58;;;;;;;0.10;0.10;;;;;;;12.59;68.21;99471.44;5004735;28;20081;-73
2023/08/29 03:10:26;;;;;;;0.10;0.10;;;;;;;12.53;68.14;99472.66;4986080;28;20050;-73
2023/08/29 03:12:53;;;;;;;0.10;0.10;;;;;;;12.55;68.41;99475.91;5006011;28;20053;-74
2023/08/29 03:15:20;;;;;;;0.10;0.10;;;;;;;12.66;68.35;99470.28;5007806;28;20624;-73
2023/08/29 03:17:47;;;;;;;0.10;0.10;;;;;;;12.79;68.13;99477.75;5006525;28;20115;-74
2023/08/29 03:20:13;;;;;;;0.10;0.10;;;;;;;12.87;67.59;99488.06;5006207;28;20362;-75
2023/08/29 03:22:39;;;;;;;0.10;0.10;;;;;;;12.89;67.32;99469.34;5010785;28;20073;-73
2023/08/29 03:25:06;;;;;;;0.10;0.10;;;;;;;12.91;67.22;99477.31;5008738;28;20038;-75
2023/08/29 03:27:34;;;;;;;0.10;0.10;;;;;;;12.96;66.95;99476.41;5006015;28;20050;-74
2023/08/29 03:30:00;;;;;;;0.10;0.10;;;;;;;12.95;66.60;99474.75;4998672;28;20053;-73
2023/08/29 03:32:27;;;;;;;0.10;0.10;;;;;;;12.94;66.70;99476.69;5005023;28;20061;-74
2023/08/29 03:34:55;;;;;;;0.10;0.10;;;;;;;12.91;66.28;99475.34;5007314;28;20070;-73
2023/08/29 03:37:21;;;;;;;0.10;0.10;;;;;;;12.88;66.71;99473.22;5008039;28;20065;-76
2023/08/29 03:39:48;;;;;;;0.10;0.10;;;;;;;12.92;66.61;99476.19;5003075;28;20058;-74
2023/08/29 03:42:14;;;;;;;0.10;0.10;;;;;;;12.77;66.76;99460.75;4990147;28;20417;-74
2023/08/29 03:44:42;;;;;;;0.10;0.10;;;;;;;12.82;67.15;99477.16;5005868;28;20517;-74
2023/08/29 03:47:08;;;;;;;0.10;0.10;;;;;;;12.82;67.46;99466.19;5005929;28;20046;-74
2023/08/29 03:49:35;;;;;;;0.20;0.20;;;;;;;12.82;67.22;99463.44;4990000;28;20046;-75
2023/08/29 03:52:01;;;;;;;0.28;0.28;;;;;;;12.79;67.26;99466.75;4987600;28;20104;-74
2023/08/29 03:54:28;;;;;;;0.10;0.10;;;;;;;12.76;67.46;99475.59;5000510;28;20623;-74
2023/08/29 03:56:54;;;;;;;0.10;0.10;;;;;;;12.70;67.45;99474.06;5007615;28;20046;-74
2023/08/29 03:59:22;;;;;;;;;;;;;;;12.78;67.88;99476.09;5002474;28;20597;-74
2023/08/29 04:01:50;;;;;;;0.10;0.10;;;;;;;12.82;67.24;99468.94;5006868;28;19990;-74
2023/08/29 04:04:16;;;;;;;0.20;0.20;;;;;;;12.87;67.31;99462.53;5011630;28;20049;-74
2023/08/29 04:06:44;;;;;;;0.10;0.10;;;;;;;12.90;67.02;99468.25;4971692;28;20092;-74
2023/08/29 04:09:14;;;;;;;0.10;0.10;;;;;;;12.88;67.06;99461.44;4995571;28;20054;-74
2023/08/29 04:11:40;;;;;;;0.13;0.13;;;;;;;12.98;66.92;99469.50;4984203;28;20065;-75
2023/08/29 04:14:07;;;;;;;0.20;0.20;;;;;;;13.09;66.67;99469.34;5007205;28;20042;-75
2023/08/29 04:16:33;;;;;;;0.20;0.20;;;;;;;13.23;65.89;99461.97;4971394;28;20046;-74
2023/08/29 04:19:02;;;;;;;0.20;0.20;;;;;;;13.50;65.19;99476.09;4997363;28;20463;-72
2023/08/29 04:21:28;;;;;;;0.20;0.20;;;;;;;13.68;64.58;99469.69;5005514;28;20058;-73
2023/08/29 04:23:55;;;;;;;0.20;0.20;;;;;;;13.95;63.57;99462.59;5023972;28;20064;-75
2023/08/29 04:26:22;;;;;;;0.20;0.20;;;;;;;14.05;62.96;99472.56;5002436;28;20060;-74
2023/08/29 04:28:48;;;;;;;0.20;0.20;;;;;;;14.25;62.85;99470.50;5027844;28;20061;-73
2023/08/29 04:31:17;;;;;;;0.20;0.20;;;;;;;14.37;61.94;99465.28;5010616;28;20050;-73
2023/08/29 04:33:43;;;;;;;0.20;0.20;;;;;;;14.36;61.67;99468.34;4990054;28;20089;-73
2023/08/29 04:36:15;;;;;;;0.20;0.20;;;;;;;14.46;61.68;99471.69;5005886;28;20053;-74
2023/08/29 04:38:42;;;;;;;0.20;0.20;;;;;;;14.44;61.58;99468.44;5006761;28;20071;-74
2023/08/29 04:41:09;;;;;;;0.10;0.10;;;;;;;14.51;61.46;99464.44;5003856;28;20071;-74
2023/08/29 04:43:35;;;;;;;0.20;0.20;;;;;;;14.56;61.30;99458.81;5005323;28;20050;-73
2023/08/29 04:46:02;;;;;;;0.20;0.20;;;;;;;14.72;60.05;99462.09;4988639;28;20318;-74
2023/08/29 04:48:28;;;;;;;0.20;0.20;;;;;;;14.80;60.35;99469.56;5006857;28;20070;-72
2023/08/29 04:50:55;;;;;;;0.20;0.20;;;;;;;14.99;59.34;99465.88;4992912;28;20312;-73
2023/08/29 04:53:23;;;;;;;0.20;0.20;;;;;;;14.90;59.39;99474.03;5007769;28;20049;-73
2023/08/29 04:55:57;;;;;;;0.20;0.20;;;;;;;15.02;59.50;99476.25;5023480;28;20048;-73
2023/08/29 04:58:23;;;;;;;0.20;0.20;;;;;;;15.26;59.00;99483.34;5006745;28;20046;-72
2023/08/29 05:00:50;;;;;;;0.20;0.20;;;;;;;15.20;57.80;99482.66;5007439;28;20056;-73
2023/08/29 05:03:18;;;;;;;0.20;0.20;;;;;;;15.13;58.20;99483.09;4989405;28;20505;-73
2023/08/29 05:05:46;;;;;;;0.30;0.30;;;;;;;15.28;58.63;99494.88;5004893;28;20457;-74
2023/08/29 05:08:15;;;;;;;0.20;0.20;;;;;;;15.57;58.35;99496.34;5001560;28;20046;-73
2023/08/29 05:10:43;;;;;;;0.22;0.22;;;;;;;15.89;57.21;99494.41;5004053;28;20281;-74
2023/08/29 05:13:09;;;;;;;0.30;0.30;;;;;;;16.21;56.48;99497.94;5002438;28;20134;-73
2023/08/29 05:15:36;;;;;;;;;;;;;;;16.30;55.50;99490.50;5004832;28;20057;-72
2023/08/29 05:18:06;;;;;;;0.30;0.30;;;;;;;16.36;55.01;99493.09;5005262;28;19925;-75
2023/08/29 05:20:32;;;;;;;0.30;0.30;;;;;;;16.36;54.53;99487.56;5003466;28;20050;-74
2023/08/29 05:22:59;;;;;;;0.30;0.30;;;;;;;16.29;55.43;99493.56;5005585;28;20042;-74
2023/08/29 05:25:26;;;;;;;0.20;0.20;;;;;;;16.32;55.75;99489.38;5016586;28;20045;-74
2023/08/29 05:27:53;;;;;;;0.20;0.20;;;;;;;16.21;55.64;99491.63;5004378;28;20606;-74
2023/08/29 05:30:20;;;;;;;0.20;0.20;;;;;;;15.63;55.66;99437.22;5002106;28;20053;-74
2023/08/29 05:32:46;;;;;;;0.20;0.20;;;;;;;15.80;57.01;99488.03;4970956;28;20504;-75
2023/08/29 05:35:13;;;;;;;0.20;0.20;;;;;;;15.71;57.62;99483.28;4996161;28;20045;-72
2023/08/29 05:37:39;;;;;;;0.20;0.20;;;;;;;15.72;57.82;99486.88;5002247;28;20050;-74
2023/08/29 05:40:08;;;;;;;0.20;0.20;;;;;;;15.68;58.04;99477.59;5004573;28;20050;-72
2023/08/29 05:42:34;;;;;;;0.20;0.20;;;;;;;15.62;57.71;99462.34;5006605;28;20050;-72
2023/08/29 05:45:03;;;;;;;0.20;0.20;;;;;;;15.69;58.02;99471.78;5003964;28;20048;-75
2023/08/29 05:47:30;;;;;;;0.20;0.20;;;;;;;15.70;57.78;99461.56;5004599;28;20528;-74
2023/08/29 05:49:57;;;;;;;0.20;0.20;;;;;;;15.77;57.96;99469.38;4985901;28;20042;-72
2023/08/29 05:52:24;;;;;;;0.20;0.20;;;;;;;15.79;57.72;99469.88;5010602;28;20058;-73
2023/08/29 05:54:50;;;;;;;0.20;0.20;;;;;;;15.80;57.91;99455.75;4995994;28;20088;-73
2023/08/29 05:57:16;;;;;;;0.20;0.20;;;;;;;15.78;57.85;99459.97;5006997;28;20081;-73
2023/08/29 05:59:43;;;;;;;0.25;0.25;;;;;;;15.78;58.01;99459.97;5004564;28;20913;-74
2023/08/29 06:02:11;;;;;;;0.22;0.22;;;;;;;15.72;58.07;99471.13;5001368;28;20788;-72
2023/08/29 06:04:37;;;;;;;0.20;0.20;;;;;;;15.63;58.91;99462.03;5005720;28;20096;-73
2023/08/29 06:07:05;;;;;;;0.25;0.25;;;;;;;15.59;58.99;99463.75;5002045;28;20401;-74
2023/08/29 06:09:32;;;;;;;;;;;;;;;15.58;59.16;99459.38;5006009;28;20320;-73
2023/08/29 06:11:59;;;;;;;0.20;0.20;;;;;;;15.54;59.04;99458.41;5007543;28;19987;-74
2023/08/29 06:14:26;;;;;;;0.20;0.20;;;;;;;15.50;59.04;99462.94;5000058;28;20052;-74
2023/08/29 06:16:52;;;;;;;0.20;0.20;;;;;;;15.49;59.36;99464.84;5006204;28;20050;-72
2023/08/29 06:19:21;;;;;;;0.30;0.30;;;;;;;15.55;59.08;99462.78;4988120;28;20047;-75
2023/08/29 06:21:47;;;;;;;0.20;0.20;;;;;;;15.54;58.99;99464.75;4973558;28;20045;-73
2023/08/29 06:24:14;;;;;;;0.20;0.20;;;;;;;15.60;59.36;99473.66;5006405;28;20053;-74
2023/08/29 06:26:41;;;;;;;0.20;0.20;;;;;;;15.52;59.27;99475.25;5007023;28;20136;-74
2023/08/29 06:29:07;;;;;;;0.20;0.20;;;;;;;15.49;59.24;99486.91;4993957;28;20946;-74
2023/08/29 06:31:33;;;;;;;0.20;0.20;;;;;;;15.44;59.02;99495.31;4995210;28;20053;-74
2023/08/29 06:33:59;;;;;;;0.28;0.28;;;;;;;15.37;59.13;99483.91;4992230;28;20050;-74
2023/08/29 06:36:27;;;;;;;0.20;0.20;;;;;;;15.42;59.61;99487.34;4986341;28;20069;-76
2023/08/29 06:38:54;;;;;;;0.20;0.20;;;;;;;15.47;59.09;99486.41;4976411;28;20062;-75
2023/08/29 06:41:21;;;;;;;0.20;0.20;;;;;;;15.27;59.51;99465.69;5003878;28;20080;-74
2023/08/29 06:43:47;;;;;;;0.30;0.30;;;;;;;15.35;59.83;99481.47;5027017;28;20535;-75
2023/08/29 06:46:14;;;;;;;0.20;0.20;;;;;;;15.31;59.91;99486.00;4986248;28;20092;-74
2023/08/29 06:48:41;;;;;;;0.20;0.20;;;;;;;15.30;59.87;99482.41;4989436;28;20061;-74
2023/08/29 06:51:08;;;;;;;0.20;0.20;;;;;;;15.31;59.53;99497.81;4995394;28;20057;-73
2023/08/29 06:53:35;;;;;;;0.20;0.20;;;;;;;15.23;59.71;99493.06;5004836;28;20569;-74
2023/08/29 06:56:03;;;;;;;0.20;0.20;;;;;;;15.28;59.88;99509.47;5005353;28;20535;-74
2023/08/29 06:58:31;;;;;;;0.20;0.20;;;;;;;15.33;60.04;99500.25;5005426;28;20046;-74
2023/08/29 07:00:57;;;;;;;0.20;0.20;;;;;;;15.40;59.62;99508.09;5004379;28;20066;-74
2023/08/29 07:03:24;;;;;;;0.20;0.20;;;;;;;15.44;59.63;99509.88;4984559;28;20041;-74
2023/08/29 07:05:50;;;;;;;0.20;0.20;;;;;;;15.49;59.36;99505.38;5006736;28;20136;-76
2023/08/29 07:08:16;;;;;;;0.20;0.20;;;;;;;15.56;59.33;99509.31;5005725;28;20104;-74
2023/08/29 07:10:43;;;;;;;0.20;0.20;;;;;;;15.63;59.42;99505.28;5005520;28;20037;-74
2023/08/29 07:13:10;;;;;;;0.20;0.20;;;;;;;15.73;58.99;99494.81;4998668;28;20150;-74
2023/08/29 07:15:36;;;;;;;0.20;0.20;;;;;;;15.88;58.82;99499.09;5005003;28;20050;-73
2023/08/29 07:18:05;;;;;;;0.28;0.28;;;;;;;15.99;58.20;99496.06;5004671;28;20445;-72
2023/08/29 07:20:31;;;;;;;0.20;0.20;;;;;;;16.08;57.67;99493.34;5004253;28;20050;-73
2023/08/29 07:22:58;;;;;;;0.20;0.20;;;;;;;16.11;58.05;99499.03;5003929;28;20447;-72
2023/08/29 07:25:36;;;;;;;0.30;0.30;;;;;;;16.10;57.43;99488.34;5007100;28;20058;-72
2023/08/29 07:28:04;;;;;;;0.20;0.20;;;;;;;16.05;57.83;99488.47;5003361;28;20076;-74
2023/08/29 07:30:30;;;;;;;0.20;0.20;;;;;;;16.03;57.64;99502.59;5004349;28;20108;-72
2023/08/29 07:32:56;;;;;;;0.20;0.20;;;;;;;16.00;57.98;99505.97;5003558;28;20132;-72
2023/08/29 07:35:24;;;;;;;0.20;0.20;;;;;;;16.03;57.88;99499.84;5000292;28;20531;-73
2023/08/29 07:37:51;;;;;;;0.30;0.30;;;;;;;16.07;57.90;99500.00;5000945;28;20042;-73
2023/08/29 07:40:17;;;;;;;;;;;;;;;16.23;57.46;99503.13;5003762;28;20050;-72
2023/08/29 07:42:44;;;;;;;0.30;0.30;;;;;;;16.29;57.45;99510.13;5002092;28;20962;-73
2023/08/29 07:45:12;;;;;;;0.20;0.20;;;;;;;16.49;56.57;99503.19;5004775;28;20053;-72
2023/08/29 07:47:39;;;;;;;0.20;0.20;;;;;;;16.60;56.86;99500.94;4990835;28;20100;-72
2023/08/29 07:50:06;;;;;;;0.23;0.23;;;;;;;16.80;56.20;99491.22;4987429;28;20079;-72
2023/08/29 07:52:34;;;;;;;0.30;0.30;;;;;;;16.80;55.99;99498.69;5008800;28;20058;-72
2023/08/29 07:55:00;;;;;;;0.30;0.30;;;;;;;16.77;56.10;99500.13;4987331;28;20045;-72
2023/08/29 07:57:27;;;;;;;0.30;0.30;;;;;;;16.84;55.76;99500.47;4996578;28;20232;-73
2023/08/29 07:59:53;;;;;;;0.30;0.30;;;;;;;16.87;55.92;99494.31;5003167;28;20137;-73
2023/08/29 08:02:21;;;;;;;0.30;0.30;;;;;;;16.94;55.29;99499.34;5007721;28;20045;-72
2023/08/29 08:04:47;;;;;;;0.20;0.20;;;;;;;16.85;55.76;99504.03;5006730;28;20046;-73
2023/08/29 08:07:13;;;;;;;0.20;0.20;;;;;;;16.69;55.54;99506.47;5007437;28;20042;-71
2023/08/29 08:09:40;;;;;;;0.45;0.30;;;;;;;16.42;56.43;99513.91;4992303;28;20076;-73
2023/08/29 08:12:07;;;;;;;0.20;0.20;;;;;;;16.19;57.45;99519.50;4975524;28;20085;-73
2023/08/29 08:14:33;;;;;;;0.20;0.20;;;;;;;16.26;57.53;99522.63;5006089;28;20042;-71
2023/08/29 08:16:59;;;;;;;0.20;0.20;;;;;;;16.22;57.55;99520.81;4999818;28;20054;-72
2023/08/29 08:19:27;;;;;;;0.20;0.20;;;;;;;16.25;57.51;99517.41;5006962;28;20046;-72
2023/08/29 08:21:53;;;;;;;0.20;0.20;;;;;;;16.32;57.89;99508.66;5008828;28;20156;-71
2023/08/29 08:24:20;;;;;;;0.30;0.30;;;;;;;16.38;57.51;99512.91;5007367;28;20440;-72
2023/08/29 08:26:46;;;;;;;0.30;0.30;;;;;;;16.30;57.64;99520.84;5004664;28;20457;-72
2023/08/29 08:29:12;;;;;;;0.30;0.30;;;;;;;16.23;58.26;99516.94;4964788;28;20077;-72
2023/08/29 08:31:39;;;;;;;0.20;0.20;;;;;;;16.16;57.42;99517.38;5008329;28;20100;-73
2023/08/29 08:34:05;;;;;;;0.20;0.20;;;;;;;16.01;57.90;99513.13;5009734;28;20046;-74
2023/08/29 08:36:32;;;;;;;0.20;0.20;;;;;;;16.00;58.02;99517.00;5009430;28;20046;-73
2023/08/29 08:38:59;;;;;;;0.68;0.40;;;;;;;15.98;58.39;99519.25;5008804;28;20212;-72
2023/08/29 08:41:26;;;;;;;0.30;0.30;;;;;;;15.98;58.49;99516.50;5023432;28;20050;-73
2023/08/29 08:43:56;;;;;;;0.30;0.30;;;;;;;15.99;58.60;99520.88;5008693;28;20038;-73
2023/08/29 08:46:23;;;;;;;0.30;0.30;;;;;;;16.08;58.30;99521.75;4985442;28;20066;-76
2023/08/29 08:48:51;;;;;;;0.20;0.20;;;;;;;16.14;58.35;99525.16;4999596;28;20045;-75
2023/08/29 08:51:21;;;;;;;0.28;0.28;;;;;;;16.14;58.10;99519.66;5002259;28;20049;-75
2023/08/29 08:53:52;;;;;;;0.20;0.20;;;;;;;16.22;57.94;99518.84;5004203;28;20132;-75
2023/08/29 08:56:19;;;;;;;0.20;0.20;;;;;;;16.23;57.89;99494.84;4670717;28;10000665;-74
2023/08/29 08:58:45;;;;;;;0.25;0.25;;;;;;;16.46;58.13;99512.13;5005337;28;20049;-74
2023/08/29 09:01:12;;;;;;;0.20;0.20;;;;;;;16.57;57.89;99504.34;4993571;28;20044;-75
2023/08/29 09:03:40;;;;;;;0.30;0.30;;;;;;;16.65;57.56;99511.81;5001712;28;20060;-75
2023/08/29 09:06:07;;;;;;;0.30;0.30;;;;;;;16.66;57.34;99512.63;5002384;28;20096;-75
2023/08/29 09:08:34;;;;;;;0.20;0.20;;;;;;;16.69;57.29;99499.00;5001107;28;20140;-76
2023/08/29 09:11:02;;;;;;;0.20;0.20;;;;;;;16.78;56.99;99501.75;5005446;28;20053;-76
2023/08/29 09:13:28;;;;;;;0.20;0.20;;;;;;;16.79;57.32;99492.34;4985389;28;20054;-75
2023/08/29 09:15:55;;;;;;;0.20;0.20;;;;;;;16.75;57.16;99502.41;4979937;28;20038;-75
2023/08/29 09:18:24;;;;;;;0.30;0.30;;;;;;;16.57;57.57;99485.03;4995430;28;20050;-75
2023/08/29 09:20:54;;;;;;;0.20;0.20;;;;;;;16.66;57.74;99504.34;5000502;28;20053;-75
2023/08/29 09:23:22;;;;;;;0.20;0.20;;;;;;;16.67;57.68;99503.22;4998667;28;20324;-74
2023/08/29 09:25:55;;;;;;;0.30;0.30;;;;;;;16.79;57.42;99503.38;5002117;28;20042;-75
2023/08/29 09:28:26;;;;;;;0.30;0.30;;;;;;;16.82;57.50;99508.25;5006257;28;20062;-75
2023/08/29 09:30:52;;;;;;;0.20;0.20;;;;;;;16.82;57.45;99510.22;5009241;28;20230;-75
2023/08/29 09:33:22;;;;;;;0.20;0.20;;;;;;;16.79;57.47;99502.59;5004881;28;20095;-75
2023/08/29 09:35:49;;;;;;;0.20;0.20;;;;;;;16.78;57.78;99510.03;5001952;28;20058;-75
2023/08/29 09:38:17;;;;;;;0.20;0.20;;;;;;;16.77;57.42;99508.41;5005893;28;20050;-74
2023/08/29 09:40:48;;;;;;;0.20;0.20;;;;;;;16.72;57.44;99517.66;5005440;28;20057;-75
2023/08/29 09:43:15;;;;;;;0.30;0.30;;;;;;;16.72;57.46;99512.16;5003284;28;20476;-75
2023/08/29 09:45:51;;;;;;;0.20;0.20;;;;;;;16.78;57.23;99514.75;5003361;28;20513;-75
2023/08/29 09:48:18;;;;;;;0.20;0.20;;;;;;;16.83;57.40;99509.09;5002104;28;20060;-75
2023/08/29 09:50:46;;;;;;;0.20;0.20;;;;;;;16.93;57.02;99513.47;5006350;28;20136;-75
2023/08/29 09:53:13;;;;;;;;;;;;;;;17.00;57.00;99511.88;4987053;28;20053;-75
2023/08/29 09:55:44;;;;;;;0.20;0.20;;;;;;;17.07;56.30;99505.03;5002091;28;20023;-75
2023/08/29 09:58:11;;;;;;;0.22;0.22;;;;;;;17.06;56.55;99500.66;5003795;28;20331;-76
2023/08/29 10:00:41;;;;;;;0.20;0.20;;;;;;;17.12;56.73;99493.84;5005334;28;20042;-74
2023/08/29 10:03:10;;;;;;;0.20;0.20;;;;;;;17.26;55.97;99491.72;5004723;28;20049;-73
2023/08/29 10:05:38;;;;;;;0.20;0.20;;;;;;;17.27;55.89;99495.28;4969882;28;20504;-76
2023/08/29 10:08:11;;;;;;;0.30;0.30;;;;;;;17.32;55.64;99491.53;5003392;28;20128;-75
2023/08/29 10:10:40;;;;;;;0.20;0.20;;;;;;;17.22;55.87;99487.97;5004023;28;20096;-76
2023/08/29 10:13:08;;;;;;;0.20;0.20;;;;;;;17.22;56.29;99501.78;5007999;28;20496;-75
2023/08/29 10:15:34;;;;;;;;;;;;;;;17.22;56.20;99503.75;5004415;28;20045;-76
2023/08/29 10:18:02;;;;;;;0.20;0.20;;;;;;;17.10;56.19;99507.16;5004732;28;20388;-76
2023/08/29 10:20:32;;;;;;;0.20;0.20;;;;;;;17.13;56.42;99503.75;5004465;28;20045;-75
2023/08/29 10:23:00;;;;;;;0.20;0.20;;;;;;;17.23;56.15;99502.59;5003747;28;20137;-75
2023/08/29 10:25:28;;;;;;;0.20;0.20;;;;;;;17.22;56.16;99504.53;5003367;28;20037;-76
2023/08/29 10:27:55;;;;;;;0.20;0.20;;;;;;;17.17;56.53;99507.47;5003027;28;20061;-75
2023/08/29 10:30:22;;;;;;;0.20;0.20;;;;;;;17.09;56.58;99513.81;5004619;28;20041;-75
2023/08/29 10:32:49;;;;;;;0.20;0.20;;;;;;;17.03;56.78;99513.19;5003908;28;20056;-75
2023/08/29 10:35:19;;;;;;;0.20;0.20;;;;;;;17.07;56.92;99513.31;5003457;28;20045;-76
2023/08/29 10:37:50;;;;;;;0.20;0.20;;;;;;;17.08;56.93;99506.66;5006726;28;20049;-75
2023/08/29 10:40:18;;;;;;;0.20;0.20;;;;;;;17.03;56.72;99498.53;5001101;28;20125;-74
2023/08/29 10:42:51;;;;;;;0.20;0.20;;;;;;;16.95;56.92;99506.50;5004159;28;20050;-75
2023/08/29 10:45:19;;;;;;;0.20;0.20;;;;;;;16.97;57.10;99522.72;5005343;28;20046;-74
2023/08/29 10:47:46;;;;;;;0.20;0.20;;;;;;;17.00;57.19;99514.63;4986438;28;20468;-77
2023/08/29 10:50:17;;;;;;;0.28;0.28;;;;;;;17.00;56.92;99517.41;5002217;28;20042;-75
2023/08/29 10:52:46;;;;;;;0.22;0.22;;;;;;;16.99;57.25;99512.19;5006526;28;20129;-76
2023/08/29 10:55:22;;;;;;;0.20;0.20;;;;;;;17.05;57.03;99519.19;5003531;28;20042;-75
2023/08/29 10:57:49;;;;;;;0.30;0.30;;;;;;;17.21;56.63;99530.53;5004331;28;20408;-77
2023/08/29 11:00:18;;;;;;;0.20;0.20;;;;;;;17.32;56.57;99533.78;4971880;28;20141;-75
2023/08/29 11:02:44;;;;;;;0.30;0.30;;;;;;;17.42;56.57;99527.13;5008058;28;20428;-76
2023/08/29 11:05:13;;;;;;;0.20;0.20;;;;;;;17.48;56.32;99523.03;5002404;28;20448;-74
2023/08/29 11:07:40;;;;;;;0.20;0.20;;;;;;;17.55;55.97;99530.81;4983372;28;20301;-75
2023/08/29 11:10:16;;;;;;;0.20;0.20;;;;;;;17.69;55.43;99533.38;5005526;28;20135;-75
2023/08/29 11:13:06;;;;;;;0.20;0.20;;;;;;;17.72;55.59;99530.78;5004578;28;20042;-74
2023/08/29 11:16:04;;;;;;;0.20;0.20;;;;;;;17.84;55.31;99527.31;5004186;28;20072;-75
2023/08/29 11:18:32;;;;;;;0.30;0.30;;;;;;;17.90;55.18;99527.94;5006294;28;20053;-76
2023/08/29 11:21:03;;;;;;;0.30;0.30;;;;;;;17.99;54.65;99509.38;5002310;28;20049;-75
2023/08/29 11:23:33;;;;;;;0.30;0.30;;;;;;;18.04;54.76;99513.94;4988921;28;20050;-75
2023/08/29 11:26:01;;;;;;;0.20;0.20;;;;;;;18.07;54.31;99529.88;4987857;28;20496;-75
2023/08/29 11:28:27;;;;;;;0.30;0.30;;;;;;;17.97;54.39;99521.91;5006345;28;20058;-74
2023/08/29 11:30:54;;;;;;;0.20;0.20;;;;;;;17.87;54.68;99520.31;5005435;28;20038;-75
2023/08/29 11:33:29;;;;;;;0.20;0.20;;;;;;;17.78;54.90;99516.75;5008937;28;20689;-75
2023/08/29 11:35:55;;;;;;;0.20;0.20;;;;;;;17.78;54.99;99505.72;5009729;28;20050;-75
2023/08/29 11:38:28;;;;;;;0.20;0.20;;;;;;;17.80;54.78;99509.78;5005812;28;20042;-75